Terminal Aerodrome Forecast
Issued by NWS Sterling, VA

Current Version | Previous Version | Graphics & Text | Print | Product List | Glossary On
Versions: 1 2 3 4 5 6 7 8 9 10 11 12 13 14 15 16 17 18 19 20 21 22 23
789
FTUS41 KLWX 092344 RRA
TAFDCA
TAF
KDCA 092344Z 1000/1024 32007KT P6SM FEW040
     FM100200 29008KT P6SM BKN045
     FM100700 28009KT 3SM -SHSN OVC040
     FM101100 28009KT P6SM BKN035
     FM101500 28013KT P6SM BKN250=

USA.gov is the U.S. government's official web portal to all federal, state and local government web resources and services.